Time;durP1;ratioP1;P1;durP2;ratioP2;P2;SDS_P1;SDS_P2;PMS_P1;PMS_P2;Temp;Humidity;BMP_temperature;BMP_pressure;BME280_temperature;BME280_humidity;BME280_pressure;Samples;Min_cycle;Max_cycle;Signal;HPM_P1;HPM_P2
2023/10/09 00:03:06;;;;;;;2.97;2.67;;;10.70;99.90;;;;;;5054238;28;20372;-75
2023/10/09 00:05:45;;;;;;;3.27;2.60;;;10.70;99.90;;;;;;5053329;28;20400;-75
2023/10/09 00:08:21;;;;;;;2.30;2.20;;;10.60;99.90;;;;;;5052722;28;20407;-76
2023/10/09 00:10:54;;;;;;;2.40;2.20;;;10.60;99.90;;;;;;5053289;28;20415;-74
2023/10/09 00:13:31;;;;;;;3.30;2.40;;;10.60;99.90;;;;;;5052881;28;20491;-76
2023/10/09 00:16:14;;;;;;;2.67;2.30;;;10.50;99.90;;;;;;5036003;28;20400;-73
2023/10/09 00:18:47;;;;;;;3.90;2.43;;;10.50;99.90;;;;;;5054063;28;20375;-74
2023/10/09 00:21:22;;;;;;;2.10;1.90;;;10.40;99.90;;;;;;5053915;28;20784;-74
2023/10/09 00:23:59;;;;;;;3.93;1.97;;;10.30;99.90;;;;;;5049699;28;21133;-73
2023/10/09 00:26:25;;;;;;;2.10;2.00;;;10.20;99.90;;;;;;5053002;28;20507;-73
2023/10/09 00:28:51;;;;;;;3.73;2.73;;;10.20;99.90;;;;;;5053350;28;20433;-75
2023/10/09 00:31:29;;;;;;;3.90;2.30;;;10.20;99.90;;;;;;5052503;28;20418;-72
2023/10/09 00:34:01;;;;;;;2.27;2.13;;;10.10;99.90;;;;;;5052666;28;20423;-74
2023/10/09 00:36:30;;;;;;;2.53;2.33;;;10.00;99.90;;;;;;5053762;28;20443;-73
2023/10/09 00:38:59;;;;;;;2.70;2.50;;;10.00;99.90;;;;;;5052640;28;20403;-75
2023/10/09 00:41:25;;;;;;;3.83;2.00;;;10.10;99.90;;;;;;5053654;28;20372;-73
2023/10/09 00:43:52;;;;;;;4.43;2.10;;;10.00;99.90;;;;;;5052665;28;20872;-73
2023/10/09 00:49:02;;;;;;;2.27;2.10;;;10.00;99.90;;;;;;5052210;28;20412;-73
2023/10/09 00:51:34;;;;;;;2.47;2.27;;;10.00;99.90;;;;;;5053422;28;20426;-73
2023/10/09 00:54:08;;;;;;;4.00;2.70;;;10.10;99.90;;;;;;5033129;28;20835;-72
2023/10/09 00:56:43;;;;;;;2.40;2.20;;;10.20;99.90;;;;;;5053259;28;20395;-73
2023/10/09 00:59:14;;;;;;;2.80;2.23;;;10.20;99.90;;;;;;5052940;28;20409;-75
2023/10/09 01:01:45;;;;;;;2.57;2.37;;;10.20;99.90;;;;;;5053196;28;20385;-73
2023/10/09 01:04:22;;;;;;;3.30;2.30;;;10.20;99.90;;;;;;5050542;28;20411;-74
2023/10/09 01:06:52;;;;;;;2.40;2.20;;;10.20;99.90;;;;;;5052817;28;20418;-71
2023/10/09 01:09:20;;;;;;;3.10;1.97;;;10.20;99.90;;;;;;5052017;28;20412;-74
2023/10/09 01:12:02;;;;;;;2.33;2.07;;;10.10;99.90;;;;;;5051840;28;20821;-74
2023/10/09 01:14:30;;;;;;;2.30;2.10;;;10.10;99.90;;;;;;5052366;28;20452;-72
2023/10/09 01:16:56;;;;;;;2.13;2.00;;;10.00;99.90;;;;;;5052983;28;20372;-75
2023/10/09 01:19:27;;;;;;;2.27;2.17;;;9.90;99.90;;;;;;5052926;28;20455;-74
2023/10/09 01:21:54;;;;;;;2.00;1.90;;;9.80;99.90;;;;;;5050994;28;20403;-75
2023/10/09 01:24:22;;;;;;;2.90;1.70;;;9.80;99.90;;;;;;5050912;28;20408;-73
2023/10/09 01:26:49;;;;;;;2.37;2.27;;;9.70;99.90;;;;;;5051861;28;20447;-72
2023/10/09 01:29:18;;;;;;;2.47;2.33;;;9.80;99.90;;;;;;5052797;28;20467;-73
2023/10/09 01:34:19;;;;;;;6.47;2.50;;;10.00;99.90;;;;;;5051613;28;20449;-72
2023/10/09 01:36:48;;;;;;;7.20;2.00;;;9.90;99.90;;;;;;5051562;28;20452;-73
2023/10/09 01:39:25;;;;;;;3.23;2.63;;;9.90;99.90;;;;;;5051715;28;20429;-73
2023/10/09 01:41:58;;;;;;;2.03;1.93;;;9.90;99.90;;;;;;5051011;28;20398;-74
2023/10/09 01:44:30;;;;;;;4.73;1.87;;;9.90;99.90;;;;;;5051366;28;20405;-72
2023/10/09 01:46:58;;;;;;;2.10;1.97;;;10.00;99.90;;;;;;5052569;28;20457;-73
2023/10/09 01:49:31;;;;;;;2.27;2.10;;;9.90;99.90;;;;;;5052683;28;20442;-74
2023/10/09 01:52:06;;;;;;;2.10;1.93;;;9.90;99.90;;;;;;5052557;28;20853;-73
2023/10/09 01:54:38;;;;;;;2.23;2.00;;;9.90;99.90;;;;;;5050540;28;20526;-73
2023/10/09 01:57:15;;;;;;;2.23;2.03;;;9.90;99.90;;;;;;5052578;28;20845;-73
2023/10/09 01:59:47;;;;;;;3.00;2.10;;;10.00;99.90;;;;;;5052238;28;20387;-74
2023/10/09 02:02:26;;;;;;;5.37;2.10;;;9.90;99.90;;;;;;5049505;28;20971;-74
2023/10/09 02:05:08;;;;;;;2.10;1.80;;;9.90;99.90;;;;;;5047556;28;20481;-74
2023/10/09 02:07:40;;;;;;;2.17;2.03;;;9.80;99.90;;;;;;5048108;28;20451;-75
2023/10/09 02:12:57;;;;;;;2.80;2.00;;;9.70;99.90;;;;;;5052680;28;20380;-74
2023/10/09 02:18:39;;;;;;;2.20;1.90;;;9.80;99.90;;;;;;5051393;28;20414;-75
2023/10/09 02:23:49;;;;;;;2.60;2.40;;;9.80;99.90;;;;;;5052270;28;20868;-73
2023/10/09 02:28:52;;;;;;;2.10;1.90;;;9.80;99.90;;;;;;5052348;28;20415;-73
2023/10/09 02:31:21;;;;;;;2.37;2.17;;;9.80;99.90;;;;;;5052337;28;20772;-73
2023/10/09 02:33:50;;;;;;;2.93;2.63;;;9.70;99.90;;;;;;5048944;28;20552;-75
2023/10/09 02:36:16;;;;;;;2.23;2.13;;;9.70;99.90;;;;;;5051943;28;20407;-75
2023/10/09 02:38:43;;;;;;;3.13;1.83;;;9.70;99.90;;;;;;5051276;28;20376;-74
2023/10/09 02:43:47;;;;;;;2.20;2.00;;;9.70;99.90;;;;;;5052064;28;20376;-75
2023/10/09 02:46:29;;;;;;;2.23;2.03;;;9.70;99.90;;;;;;5053297;28;21253;-75
2023/10/09 02:48:57;;;;;;;2.20;1.77;;;9.70;99.90;;;;;;5035865;28;20400;-76
2023/10/09 02:53:59;;;;;;;1.80;1.70;;;9.70;99.90;;;;;;5034671;28;20909;-74
2023/10/09 02:56:42;;;;;;;4.63;2.20;;;9.70;99.90;;;;;;5046979;28;20428;-74
2023/10/09 02:59:08;;;;;;;3.20;2.00;;;9.70;99.90;;;;;;5055547;28;20809;-73
2023/10/09 03:01:37;;;;;;;3.20;2.33;;;9.70;99.90;;;;;;5055547;28;20372;-75
2023/10/09 03:04:06;;;;;;;2.50;2.30;;;9.70;99.90;;;;;;5053440;28;20411;-74
2023/10/09 03:06:34;;;;;;;3.47;2.50;;;9.70;99.90;;;;;;5055121;28;20421;-74
2023/10/09 03:09:01;;;;;;;2.03;1.90;;;9.70;99.90;;;;;;5055501;28;20384;-73
2023/10/09 03:11:27;;;;;;;3.17;2.00;;;9.80;99.90;;;;;;5054173;28;20429;-74
2023/10/09 03:13:53;;;;;;;2.80;2.17;;;9.70;99.90;;;;;;5053677;28;20767;-75
2023/10/09 03:16:19;;;;;;;2.23;2.10;;;9.70;99.90;;;;;;5053405;28;20207;-74
2023/10/09 03:18:54;;;;;;;3.50;2.60;;;9.60;99.90;;;;;;5055178;28;20737;-73
2023/10/09 03:21:20;;;;;;;4.50;2.43;;;9.60;99.90;;;;;;5055219;28;20412;-74
2023/10/09 03:23:50;;;;;;;2.10;1.90;;;9.70;99.90;;;;;;5054183;28;20868;-74
2023/10/09 03:26:20;;;;;;;5.10;2.50;;;9.60;99.90;;;;;;5053540;28;20478;-74
2023/10/09 03:28:47;;;;;;;3.30;1.73;;;9.60;99.90;;;;;;5055063;28;20383;-74
2023/10/09 03:31:12;;;;;;;2.90;2.70;;;9.70;99.90;;;;;;5054214;28;20383;-74
2023/10/09 03:33:39;;;;;;;4.60;2.47;;;9.70;99.90;;;;;;5052649;28;20599;-78
2023/10/09 03:36:11;;;;;;;2.47;2.27;;;9.70;99.90;;;;;;5054487;28;20187;-75
2023/10/09 03:38:38;;;;;;;3.30;2.00;;;9.70;99.90;;;;;;5054767;28;20518;-74
2023/10/09 03:41:05;;;;;;;2.43;2.17;;;9.80;99.90;;;;;;5053613;28;20400;-74
2023/10/09 03:43:34;;;;;;;3.77;2.50;;;9.80;99.90;;;;;;5054431;28;20401;-76
2023/10/09 03:46:03;;;;;;;6.43;3.20;;;9.80;99.90;;;;;;5051430;28;20423;-77
2023/10/09 03:48:32;;;;;;;3.60;2.43;;;9.70;99.90;;;;;;5053234;28;20407;-74
2023/10/09 03:51:09;;;;;;;3.27;2.57;;;9.80;99.90;;;;;;5053905;28;20749;-75
2023/10/09 03:53:42;;;;;;;5.03;3.20;;;9.80;99.90;;;;;;5053813;28;20907;-75
2023/10/09 03:56:12;;;;;;;2.80;2.60;;;9.80;99.90;;;;;;5052141;28;20435;-75
2023/10/09 03:58:45;;;;;;;4.30;2.87;;;9.80;99.90;;;;;;5053268;28;20403;-75
2023/10/09 04:01:37;;;;;;;2.90;2.60;;;9.80;99.90;;;;;;5054371;28;20848;-74
2023/10/09 04:04:06;;;;;;;2.83;2.63;;;9.80;99.90;;;;;;5053541;28;20380;-74
2023/10/09 04:06:33;;;;;;;3.50;2.63;;;9.80;99.90;;;;;;5054020;28;20534;-75
2023/10/09 04:09:27;;;;;;;3.73;2.60;;;9.80;99.90;;;;;;5050971;28;20411;-75
2023/10/09 04:14:49;;;;;;;4.47;2.87;;;10.00;1.00;;;;;;5053052;28;20465;-75
2023/10/09 04:22:39;;;;;;;3.80;3.23;;;10.10;1.00;;;;;;5054160;28;20428;-75
2023/10/09 04:25:14;;;;;;;6.83;3.80;;;10.10;1.00;;;;;;5045361;28;20455;-75
2023/10/09 04:27:41;;;;;;;3.87;3.57;;;10.10;1.00;;;;;;5049966;28;20442;-75
2023/10/09 04:30:07;;;;;;;3.93;3.60;;;10.10;1.00;;;;;;5036445;28;20388;-75
2023/10/09 04:32:34;;;;;;;5.37;4.90;;;10.10;1.00;;;;;;5053251;28;20395;-75
2023/10/09 04:37:52;;;;;;;4.97;4.30;;;10.10;1.00;;;;;;5053531;28;20413;-75
2023/10/09 04:40:41;;;;;;;3.47;3.17;;;10.10;1.00;;;;;;5052540;28;20495;-75
2023/10/09 04:43:09;;;;;;;6.47;3.97;;;10.10;1.00;;;;;;5053532;28;20411;-74
2023/10/09 04:48:10;;;;;;;3.97;3.67;;;10.10;1.00;;;;;;5053426;28;20382;-76
2023/10/09 04:50:45;;;;;;;3.60;3.40;;;10.10;1.00;;;;;;5052168;28;20450;-76
2023/10/09 04:55:44;;;;;;;5.33;3.57;;;10.10;1.00;;;;;;5052484;28;20972;-72
2023/10/09 04:58:23;;;;;;;9.10;4.00;;;10.10;1.00;;;;;;5053452;28;20733;-76
2023/10/09 05:01:04;;;;;;;3.70;3.50;;;10.10;1.00;;;;;;5053118;28;20426;-77
2023/10/09 05:03:42;;;;;;;3.67;3.37;;;10.10;1.00;;;;;;5052663;28;20415;-77
2023/10/09 05:06:55;;;;;;;3.43;3.13;;;10.10;1.00;;;;;;5050336;28;20551;-75
2023/10/09 05:08:55;;;;;;;3.57;3.27;;;10.10;1.00;;;;;;5043619;28;20480;-75
2023/10/09 05:11:52;;;;;;;3.97;2.93;;;10.10;1.00;;;;;;5051284;28;20507;-75
2023/10/09 05:14:26;;;;;;;6.23;3.60;;;10.10;1.00;;;;;;5047455;28;20696;-76
2023/10/09 05:16:55;;;;;;;3.40;3.10;;;10.00;1.00;;;;;;5050918;28;20428;-76
2023/10/09 05:19:41;;;;;;;5.10;3.73;;;10.00;1.00;;;;;;5052885;28;20406;-75
2023/10/09 05:22:16;;;;;;;5.90;4.20;;;10.00;1.00;;;;;;5051914;28;20405;-76
2023/10/09 05:24:47;;;;;;;3.10;2.90;;;10.00;1.00;;;;;;5050908;28;20499;-76
2023/10/09 05:27:19;;;;;;;3.47;3.23;;;10.00;1.00;;;;;;5051586;28;20449;-76
2023/10/09 05:29:49;;;;;;;3.70;2.90;;;10.00;1.00;;;;;;5052799;28;20446;-75
2023/10/09 05:37:32;;;;;;;7.10;3.77;;;10.00;1.00;;;;;;5050514;28;20244;-75
2023/10/09 05:50:34;;;;;;;3.53;3.23;;;10.00;1.00;;;;;;5051539;28;20415;-73
2023/10/09 06:02:27;;;;;;;3.90;3.60;;;10.20;1.00;;;;;;5048814;28;20406;-75
2023/10/09 06:04:04;;;;;;;4.97;4.20;;;10.20;1.00;;;;;;5047594;28;20415;-75
2023/10/09 06:06:33;;;;;;;8.23;7.53;;;10.20;1.00;;;;;;5052636;28;20892;-75
2023/10/09 06:19:26;;;;;;;4.13;3.67;;;10.30;1.00;;;;;;5051519;28;20982;-74
2023/10/09 06:27:38;;;;;;;4.77;4.47;;;10.40;1.00;;;;;;5055088;28;20423;-75
2023/10/09 06:35:30;;;;;;;4.83;4.20;;;10.50;1.00;;;;;;5052473;28;20532;-76
2023/10/09 06:45:54;;;;;;;3.67;3.40;;;10.60;1.00;;;;;;5035123;28;20430;-75
2023/10/09 06:59:07;;;;;;;10.93;6.10;;;10.60;1.00;;;;;;5054831;28;20391;-74
2023/10/09 07:01:42;;;;;;;10.53;3.60;;;10.60;1.00;;;;;;5055403;28;20405;-76
2023/10/09 07:06:56;;;;;;;4.90;3.17;;;10.70;1.00;;;;;;5054238;28;20462;-74
2023/10/09 07:09:22;;;;;;;3.07;2.77;;;10.70;1.00;;;;;;5055331;28;20475;-76
2023/10/09 07:17:26;;;;;;;2.90;2.70;;;10.70;1.00;;;;;;5013415;28;20467;-77
2023/10/09 07:24:58;;;;;;;3.50;2.53;;;10.70;1.00;;;;;;5053100;28;20749;-74
2023/10/09 07:38:10;;;;;;;7.23;2.93;;;10.80;1.00;;;;;;5054822;28;20446;-76
2023/10/09 07:40:55;;;;;;;2.83;2.53;;;10.80;1.00;;;;;;5054848;28;20401;-76
2023/10/09 07:43:45;;;;;;;3.30;2.80;;;10.80;1.00;;;;;;5054698;28;20467;-76
2023/10/09 07:49:12;;;;;;;2.50;2.30;;;10.80;1.00;;;;;;5000543;28;20477;-74
2023/10/09 07:51:39;;;;;;;2.73;2.40;;;10.80;1.00;;;;;;5052876;28;20786;-74
2023/10/09 07:54:07;;;;;;;3.23;2.50;;;10.80;1.00;;;;;;5053607;28;20455;-76
2023/10/09 07:56:41;;;;;;;3.50;2.90;;;10.90;1.00;;;;;;5054519;28;20876;-77
2023/10/09 07:59:10;;;;;;;3.07;2.40;;;10.90;1.00;;;;;;5054638;28;20861;-75
2023/10/09 08:01:52;;;;;;;2.90;2.40;;;10.90;1.00;;;;;;5052328;28;20474;-78
2023/10/09 08:04:37;;;;;;;3.80;2.90;;;11.00;1.00;;;;;;5051682;28;20439;-77
2023/10/09 08:07:19;;;;;;;3.60;2.63;;;11.00;1.00;;;;;;5052972;28;20497;-74
2023/10/09 08:11:41;;;;;;;2.83;2.63;;;11.00;1.00;;;;;;5054080;28;20433;-74
2023/10/09 08:12:57;;;;;;;8.90;2.90;;;11.00;1.00;;;;;;5051878;28;20936;-77
2023/10/09 08:15:51;;;;;;;2.93;2.70;;;11.00;1.00;;;;;;5052375;28;20815;-75
2023/10/09 08:18:27;;;;;;;2.70;2.50;;;11.10;1.00;;;;;;5048038;28;20403;-77
2023/10/09 08:23:33;;;;;;;3.60;2.97;;;11.20;1.00;;;;;;5054093;28;20407;-74
2023/10/09 08:26:14;;;;;;;3.20;2.40;;;11.20;1.00;;;;;;5053065;28;20764;-77
2023/10/09 08:28:45;;;;;;;3.40;2.23;;;11.30;1.00;;;;;;5053122;28;20397;-73
2023/10/09 08:31:19;;;;;;;4.77;3.40;;;11.40;1.00;;;;;;5053900;28;20476;-76
2023/10/09 08:33:58;;;;;;;7.10;3.17;;;11.40;1.00;;;;;;5052932;28;20453;-75
2023/10/09 08:36:28;;;;;;;2.80;2.60;;;11.50;1.00;;;;;;5053625;28;20827;-74
2023/10/09 08:39:08;;;;;;;3.00;2.60;;;11.50;1.00;;;;;;5052740;28;20432;-73
2023/10/09 08:41:34;;;;;;;3.83;2.57;;;11.50;1.00;;;;;;5053465;28;20371;-76
2023/10/09 08:44:03;;;;;;;2.37;2.17;;;11.50;1.00;;;;;;5043366;28;20405;-74
2023/10/09 08:46:30;;;;;;;3.17;2.87;;;11.50;1.00;;;;;;5051108;28;20647;-76
2023/10/09 08:48:59;;;;;;;2.83;2.63;;;11.50;1.00;;;;;;5052336;28;20379;-76
2023/10/09 08:51:26;;;;;;;2.60;2.40;;;11.40;1.00;;;;;;5053435;28;20383;-77
2023/10/09 08:53:53;;;;;;;5.43;2.77;;;11.30;1.00;;;;;;5052484;28;20784;-76
2023/10/09 08:56:23;;;;;;;5.73;2.90;;;11.20;1.00;;;;;;5053438;28;20425;-76
2023/10/09 08:58:51;;;;;;;2.70;2.50;;;11.20;1.00;;;;;;5052341;28;20408;-74
2023/10/09 09:01:21;;;;;;;6.47;2.43;;;11.30;1.00;;;;;;5033325;28;20464;-77
2023/10/09 09:03:47;;;;;;;6.00;3.00;;;11.30;1.00;;;;;;5031831;28;20468;-75
2023/10/09 09:06:14;;;;;;;2.30;2.10;;;11.30;1.00;;;;;;5049798;28;20995;-76
2023/10/09 09:08:40;;;;;;;3.20;2.43;;;11.30;1.00;;;;;;5053023;28;20387;-73
2023/10/09 09:11:30;;;;;;;3.17;2.80;;;11.30;1.00;;;;;;5053111;28;20408;-76
2023/10/09 09:14:02;;;;;;;4.70;3.07;;;11.30;1.00;;;;;;5051018;28;20448;-76
2023/10/09 09:16:31;;;;;;;3.60;3.30;;;11.30;1.00;;;;;;5052043;28;20787;-75
2023/10/09 09:21:37;;;;;;;71.93;33.17;;;11.30;1.00;;;;;;5051557;28;20873;-74
2023/10/09 09:24:07;;;;;;;9.53;6.10;;;11.30;1.00;;;;;;5049788;28;20841;-76
2023/10/09 09:26:44;;;;;;;4.27;3.80;;;11.40;1.00;;;;;;5052965;28;20506;-76
2023/10/09 09:29:11;;;;;;;3.93;2.70;;;11.40;1.00;;;;;;5051428;28;20419;-75
2023/10/09 09:31:41;;;;;;;6.27;2.90;;;11.40;1.00;;;;;;5052708;28;20860;-75
2023/10/09 09:34:16;;;;;;;3.93;3.40;;;11.40;1.00;;;;;;5051854;28;20435;-75
2023/10/09 09:36:57;;;;;;;3.70;3.40;;;11.40;1.00;;;;;;5033893;28;20956;-75
2023/10/09 09:39:27;;;;;;;3.57;3.27;;;11.40;1.00;;;;;;5051926;28;20398;-74
2023/10/09 09:42:13;;;;;;;9.23;3.50;;;11.40;1.00;;;;;;5052740;28;20406;-76
2023/10/09 09:44:48;;;;;;;3.03;2.67;;;11.50;1.00;;;;;;5048670;28;20440;-74
2023/10/09 09:47:25;;;;;;;4.80;3.40;;;11.50;1.00;;;;;;5052725;28;20896;-77
2023/10/09 09:50:00;;;;;;;4.27;3.33;;;11.50;1.00;;;;;;5051944;28;20408;-77
2023/10/09 09:52:37;;;;;;;3.30;2.70;;;11.50;1.00;;;;;;5032827;28;20410;-75
2023/10/09 09:55:05;;;;;;;3.40;3.10;;;11.60;1.00;;;;;;5031676;28;20465;-76
2023/10/09 09:57:39;;;;;;;4.53;3.10;;;11.60;1.00;;;;;;5037121;28;20807;-76
2023/10/09 10:00:17;;;;;;;5.60;3.50;;;11.60;1.00;;;;;;5056820;28;20408;-75
2023/10/09 10:02:45;;;;;;;4.63;2.70;;;11.60;1.00;;;;;;5055543;28;20880;-76
2023/10/09 10:05:15;;;;;;;4.47;3.37;;;11.70;1.00;;;;;;5055316;28;20422;-77
2023/10/09 10:07:49;;;;;;;5.70;3.70;;;11.70;1.00;;;;;;5036866;28;20381;-75
2023/10/09 10:11:20;;;;;;;3.77;3.30;;;11.70;1.00;;;;;;5036596;28;20396;-75
2023/10/09 10:13:48;;;;;;;3.93;3.60;;;11.80;1.00;;;;;;5024674;28;20418;-77
2023/10/09 10:19:00;;;;;;;3.73;3.03;;;11.70;1.00;;;;;;5035801;28;20763;-75
2023/10/09 10:24:05;;;;;;;6.53;3.13;;;11.80;1.00;;;;;;5055631;28;20471;-75
2023/10/09 10:26:33;;;;;;;3.03;2.80;;;11.90;1.00;;;;;;5056136;28;20416;-75
2023/10/09 10:29:23;;;;;;;3.53;3.23;;;11.90;1.00;;;;;;5055305;28;20414;-75
2023/10/09 10:32:00;;;;;;;3.23;3.03;;;11.90;1.00;;;;;;5056185;28;20885;-76
2023/10/09 10:34:26;;;;;;;3.50;3.20;;;11.90;1.00;;;;;;5050127;28;20496;-78
2023/10/09 10:36:59;;;;;;;8.60;3.63;;;11.90;1.00;;;;;;5055954;28;20396;-76
2023/10/09 10:39:44;;;;;;;4.00;2.97;;;11.90;1.00;;;;;;5055986;28;20372;-76
2023/10/09 10:42:33;;;;;;;4.47;3.40;;;12.00;1.00;;;;;;5055913;28;20451;-76
2023/10/09 10:44:56;;;;;;;3.50;2.93;;;12.00;1.00;;;;;;5053877;28;20511;-76
2023/10/09 10:47:33;;;;;;;3.27;2.97;;;12.00;1.00;;;;;;5037841;28;20487;-77
2023/10/09 10:50:35;;;;;;;3.60;3.30;;;12.00;1.00;;;;;;5054756;28;20436;-76
2023/10/09 10:53:34;;;;;;;3.17;2.87;;;12.00;1.00;;;;;;5054666;28;20801;-80
2023/10/09 10:58:37;;;;;;;3.67;2.93;;;12.10;1.00;;;;;;5055687;28;20437;-76
2023/10/09 11:01:11;;;;;;;3.87;2.97;;;12.10;1.00;;;;;;5054552;28;20930;-76
2023/10/09 11:03:56;;;;;;;3.33;3.13;;;12.10;1.00;;;;;;5035308;28;20166;-79
2023/10/09 11:06:36;;;;;;;5.00;3.67;;;12.00;1.00;;;;;;5047880;28;20452;-76
2023/10/09 11:09:35;;;;;;;3.70;3.20;;;12.10;1.00;;;;;;5055602;28;20383;-76
2023/10/09 11:12:11;;;;;;;3.40;3.10;;;12.10;1.00;;;;;;5054338;28;20483;-77
2023/10/09 11:15:05;;;;;;;3.27;3.07;;;12.10;1.00;;;;;;5035701;28;20501;-76
2023/10/09 11:17:40;;;;;;;3.87;3.57;;;12.20;1.00;;;;;;5036190;28;20829;-78
2023/10/09 11:20:26;;;;;;;3.93;3.63;;;12.20;1.00;;;;;;5036085;28;20393;-77
2023/10/09 11:23:47;;;;;;;4.00;3.70;;;12.10;1.00;;;;;;5035302;28;20381;-76
2023/10/09 11:25:50;;;;;;;6.20;3.80;;;12.20;1.00;;;;;;5030194;28;20528;-76
2023/10/09 11:28:42;;;;;;;5.73;3.37;;;12.30;1.00;;;;;;5053059;28;20436;-76
2023/10/09 11:31:16;;;;;;;11.63;7.17;;;12.40;1.00;;;;;;5036355;28;20398;-75
2023/10/09 11:33:51;;;;;;;17.20;12.67;;;12.40;1.00;;;;;;5054190;28;20437;-77
2023/10/09 11:36:32;;;;;;;3.33;3.03;;;12.50;1.00;;;;;;5036102;28;20427;-75
2023/10/09 11:39:18;;;;;;;3.47;3.23;;;12.40;1.00;;;;;;5054915;28;20375;-77
2023/10/09 11:41:44;;;;;;;3.40;3.20;;;12.40;1.00;;;;;;5054889;28;20502;-76
2023/10/09 11:44:23;;;;;;;4.33;3.80;;;12.40;1.00;;;;;;5053818;28;20519;-75
2023/10/09 11:47:13;;;;;;;3.00;2.80;;;12.40;1.00;;;;;;5053669;28;20186;-78
2023/10/09 11:52:35;;;;;;;2.60;2.40;;;12.40;1.00;;;;;;5054888;28;20402;-76
2023/10/09 11:55:06;;;;;;;4.03;3.73;;;12.50;1.00;;;;;;5053753;28;20431;-76
2023/10/09 11:57:33;;;;;;;3.17;2.50;;;12.40;1.00;;;;;;5054514;28;20397;-76
2023/10/09 12:00:47;;;;;;;3.43;3.13;;;12.40;1.00;;;;;;5054415;28;20394;-77
2023/10/09 12:02:53;;;;;;;3.13;2.80;;;12.40;1.00;;;;;;5041715;28;20480;-76
2023/10/09 12:05:19;;;;;;;4.23;3.90;;;12.40;1.00;;;;;;5050885;28;20448;-76
2023/10/09 12:07:54;;;;;;;5.93;3.47;;;12.40;1.00;;;;;;5035694;28;20175;-77
2023/10/09 12:10:25;;;;;;;3.53;3.23;;;12.40;1.00;;;;;;5054303;28;20390;-76
2023/10/09 12:12:57;;;;;;;3.57;3.30;;;12.40;1.00;;;;;;5054229;28;20455;-76
2023/10/09 12:15:24;;;;;;;3.53;3.23;;;12.40;1.00;;;;;;5053085;28;20484;-77
2023/10/09 12:17:53;;;;;;;3.47;3.17;;;12.40;1.00;;;;;;5053154;28;20421;-76
2023/10/09 12:20:31;;;;;;;4.30;4.00;;;12.40;1.00;;;;;;5051202;28;20429;-77
2023/10/09 12:22:59;;;;;;;3.63;3.20;;;12.40;1.00;;;;;;5054070;28;20397;-76
2023/10/09 12:25:31;;;;;;;3.93;3.57;;;12.40;1.00;;;;;;5053000;28;20510;-75
2023/10/09 12:28:03;;;;;;;5.27;3.97;;;12.40;1.00;;;;;;5034483;28;20424;-80
2023/10/09 12:30:30;;;;;;;3.80;3.50;;;12.40;1.00;;;;;;5053643;28;20456;-74
2023/10/09 12:32:58;;;;;;;3.80;3.33;;;12.40;1.00;;;;;;5035857;28;20380;-75
2023/10/09 12:35:25;;;;;;;3.20;2.53;;;12.50;1.00;;;;;;5035040;28;21092;-76
2023/10/09 12:37:54;;;;;;;5.23;3.30;;;12.50;1.00;;;;;;5053949;28;20875;-77
2023/10/09 12:40:29;;;;;;;3.17;2.97;;;12.50;1.00;;;;;;5053698;28;20494;-75
2023/10/09 12:42:58;;;;;;;3.03;2.83;;;12.60;1.00;;;;;;5053705;28;20393;-75
2023/10/09 12:45:32;;;;;;;2.87;2.67;;;12.70;1.00;;;;;;5051956;28;20808;-76
2023/10/09 12:48:09;;;;;;;3.10;2.90;;;12.80;1.00;;;;;;5035698;28;20777;-77
2023/10/09 12:50:41;;;;;;;3.10;2.90;;;12.80;1.00;;;;;;5053523;28;20455;-76
2023/10/09 12:53:08;;;;;;;2.67;2.47;;;12.90;1.00;;;;;;5035803;28;20441;-77
2023/10/09 12:55:40;;;;;;;3.13;2.83;;;12.90;1.00;;;;;;5052563;28;20455;-77
2023/10/09 12:58:07;;;;;;;4.70;2.90;;;12.90;1.00;;;;;;5053295;28;20406;-76
2023/10/09 13:00:37;;;;;;;2.17;2.07;;;12.90;1.00;;;;;;5053479;28;20387;-77
2023/10/09 13:03:13;;;;;;;2.57;2.40;;;12.80;1.00;;;;;;5053441;28;20402;-76
2023/10/09 13:05:46;;;;;;;2.97;2.80;;;12.80;1.00;;;;;;5033826;28;20444;-76
2023/10/09 13:08:11;;;;;;;2.90;2.70;;;12.80;1.00;;;;;;5053199;28;20434;-76
2023/10/09 13:10:37;;;;;;;2.70;2.50;;;12.80;1.00;;;;;;5053122;28;20376;-76
2023/10/09 13:13:06;;;;;;;2.90;2.70;;;12.80;1.00;;;;;;5053341;28;20163;-76
2023/10/09 13:15:42;;;;;;;2.23;2.03;;;12.90;1.00;;;;;;5052354;28;20511;-75
2023/10/09 13:18:08;;;;;;;2.23;2.13;;;12.90;1.00;;;;;;5053108;28;20389;-76
2023/10/09 13:20:36;;;;;;;2.90;2.67;;;13.00;1.00;;;;;;5052980;28;20390;-77
2023/10/09 13:23:01;;;;;;;2.50;2.30;;;13.00;1.00;;;;;;5052664;28;20186;-77
2023/10/09 13:25:39;;;;;;;2.07;1.97;;;13.10;1.00;;;;;;5051848;28;20388;-76
2023/10/09 13:28:04;;;;;;;2.93;2.50;;;13.10;1.00;;;;;;5052935;28;20231;-76
2023/10/09 13:30:38;;;;;;;2.40;2.30;;;13.20;1.00;;;;;;5052681;28;20481;-76
2023/10/09 13:33:05;;;;;;;5.23;2.23;;;13.20;1.00;;;;;;5052935;28;20159;-76
2023/10/09 13:35:37;;;;;;;2.20;2.00;;;13.30;1.00;;;;;;5052076;28;20425;-76
2023/10/09 13:38:08;;;;;;;1.70;1.60;;;13.20;1.00;;;;;;5052912;28;20394;-76
2023/10/09 13:40:37;;;;;;;2.10;1.90;;;13.20;1.00;;;;;;5052649;28;20376;-77
2023/10/09 13:43:03;;;;;;;2.00;1.90;;;13.20;1.00;;;;;;5034276;28;20417;-76
2023/10/09 13:45:30;;;;;;;2.23;2.03;;;13.20;1.00;;;;;;5052077;28;20426;-76
2023/10/09 13:48:02;;;;;;;1.90;1.80;;;13.20;1.00;;;;;;5034911;28;20842;-78
2023/10/09 13:50:32;;;;;;;4.07;2.27;;;13.20;1.00;;;;;;5052864;28;20409;-76
2023/10/09 13:52:58;;;;;;;2.87;2.67;;;13.20;1.00;;;;;;5052702;28;20893;-77
2023/10/09 13:55:31;;;;;;;2.57;2.37;;;13.20;1.00;;;;;;5051949;28;20480;-76
2023/10/09 13:57:57;;;;;;;2.70;2.50;;;13.20;1.00;;;;;;5052744;28;20383;-77
2023/10/09 14:00:33;;;;;;;4.80;2.93;;;13.10;1.00;;;;;;5052693;28;20913;-76
2023/10/09 14:03:11;;;;;;;2.87;2.67;;;13.00;1.00;;;;;;5033974;28;20387;-77
2023/10/09 14:05:44;;;;;;;4.40;2.93;;;13.10;1.00;;;;;;5034097;28;20439;-76
2023/10/09 14:08:10;;;;;;;2.30;2.20;;;13.00;1.00;;;;;;5034752;28;20459;-76
2023/10/09 14:10:38;;;;;;;2.43;2.27;;;13.00;1.00;;;;;;5052482;28;20397;-80
2023/10/09 14:13:12;;;;;;;2.20;2.10;;;13.00;1.00;;;;;;5052447;28;20171;-77
2023/10/09 14:15:41;;;;;;;2.77;2.60;;;13.00;1.00;;;;;;5051750;28;20453;-77
2023/10/09 14:18:09;;;;;;;2.67;2.47;;;13.00;1.00;;;;;;5052511;28;20393;-76
2023/10/09 14:20:35;;;;;;;2.70;2.40;;;13.00;1.00;;;;;;5033689;28;20963;-78
2023/10/09 14:23:08;;;;;;;2.37;2.13;;;13.00;1.00;;;;;;5052490;28;20393;-77
2023/10/09 14:25:37;;;;;;;3.10;2.87;;;13.00;1.00;;;;;;5051624;28;20439;-76
2023/10/09 14:28:07;;;;;;;2.70;2.50;;;13.00;1.00;;;;;;5034519;28;20411;-76
2023/10/09 14:30:44;;;;;;;2.13;2.03;;;13.00;1.00;;;;;;5034648;28;20410;-76
2023/10/09 14:33:12;;;;;;;2.70;2.50;;;13.00;1.00;;;;;;5052466;28;20968;-76
2023/10/09 14:35:44;;;;;;;2.90;2.70;;;13.00;1.00;;;;;;5051437;28;20449;-77
2023/10/09 14:38:15;;;;;;;4.43;2.60;;;13.00;1.00;;;;;;5052172;28;20408;-76
2023/10/09 14:40:49;;;;;;;2.57;2.37;;;13.00;1.00;;;;;;5051732;28;20833;-77
2023/10/09 14:43:24;;;;;;;3.10;2.80;;;13.00;1.00;;;;;;5054893;28;20372;-76
2023/10/09 14:45:53;;;;;;;5.33;3.70;;;13.00;1.00;;;;;;5055214;28;20786;-76
2023/10/09 14:48:25;;;;;;;2.73;2.53;;;13.00;1.00;;;;;;5055849;28;20405;-76
2023/10/09 14:50:57;;;;;;;2.70;2.50;;;13.00;1.00;;;;;;5038010;28;20411;-76
2023/10/09 14:53:26;;;;;;;2.60;2.40;;;13.00;1.00;;;;;;5055637;28;20479;-77
2023/10/09 14:56:02;;;;;;;2.60;2.40;;;13.00;1.00;;;;;;5055151;28;20426;-77
2023/10/09 14:58:30;;;;;;;2.23;2.13;;;13.00;1.00;;;;;;5055000;28;20838;-78
2023/10/09 15:00:56;;;;;;;2.73;2.53;;;13.00;1.00;;;;;;5037801;28;20891;-76
2023/10/09 15:03:22;;;;;;;2.30;2.10;;;13.10;1.00;;;;;;5055475;28;20437;-77
2023/10/09 15:05:51;;;;;;;2.20;2.10;;;13.10;1.00;;;;;;5054885;28;20449;-77
2023/10/09 15:08:17;;;;;;;2.00;1.80;;;13.10;1.00;;;;;;5055660;28;20451;-76
2023/10/09 15:10:56;;;;;;;3.77;1.90;;;13.00;1.00;;;;;;5055477;28;20417;-76
2023/10/09 15:13:27;;;;;;;2.53;1.97;;;13.00;1.00;;;;;;5055216;28;20873;-78
2023/10/09 15:15:54;;;;;;;2.37;2.17;;;13.10;1.00;;;;;;5036814;28;20489;-77
2023/10/09 15:18:21;;;;;;;3.17;2.13;;;13.10;1.00;;;;;;5054500;28;20394;-77
2023/10/09 15:20:51;;;;;;;3.30;2.57;;;13.10;1.00;;;;;;5055499;28;20402;-76
2023/10/09 15:23:19;;;;;;;2.10;2.00;;;13.10;1.00;;;;;;5055272;28;20477;-77
2023/10/09 15:25:49;;;;;;;2.43;2.07;;;13.10;1.00;;;;;;5054240;28;20425;-78
2023/10/09 15:28:17;;;;;;;5.37;2.77;;;13.20;1.00;;;;;;5055294;28;20734;-77
2023/10/09 15:30:43;;;;;;;5.67;3.93;;;13.10;1.00;;;;;;5055108;28;20368;-75
2023/10/09 15:33:10;;;;;;;7.43;3.70;;;13.10;1.00;;;;;;5037185;28;20421;-77
2023/10/09 15:35:36;;;;;;;2.60;2.40;;;13.10;1.00;;;;;;5053455;28;20527;-80
2023/10/09 15:38:03;;;;;;;3.87;2.90;;;13.10;1.00;;;;;;5054736;28;20929;-77
2023/10/09 15:40:34;;;;;;;2.53;2.37;;;13.10;1.00;;;;;;5054939;28;20382;-77
2023/10/09 15:43:00;;;;;;;2.67;2.47;;;13.10;1.00;;;;;;5054994;28;20961;-77
2023/10/09 15:45:28;;;;;;;7.40;5.00;;;13.10;1.00;;;;;;5036244;28;20822;-76
2023/10/09 15:47:55;;;;;;;3.20;3.00;;;13.10;1.00;;;;;;5036826;28;20929;-77
2023/10/09 15:50:24;;;;;;;2.93;2.70;;;13.10;1.00;;;;;;5054804;28;20413;-77